Time;durP1;ratioP1;P1;durP2;ratioP2;P2;SDS_P1;SDS_P2;PMS_P1;PMS_P2;Temp;Humidity;BMP_temperature;BMP_pressure;BME280_temperature;BME280_humidity;BME280_pressure;Samples;Min_cycle;Max_cycle;Signal;HPM_P1;HPM_P2
2023/07/16 00:00:25;;;;;;;0.40;0.40;;;;;;;18.17;100.00;96746.09;29394;254;64013;-64
2023/07/16 00:00:56;;;;;;;0.40;0.40;;;;;;;18.11;100.00;96747.47;29395;220;63018;-66
2023/07/16 00:01:27;;;;;;;0.40;0.40;;;;;;;18.08;100.00;96755.22;29395;215;63015;-61
2023/07/16 00:01:59;;;;;;;0.40;0.40;;;;;;;18.07;100.00;96758.31;29395;251;63004;-59
2023/07/16 00:02:31;;;;;;;0.40;0.40;;;;;;;18.03;100.00;96751.91;29395;197;63009;-63
2023/07/16 00:03:02;;;;;;;0.40;0.40;;;;;;;17.98;100.00;96758.47;29395;298;63004;-59
2023/07/16 00:03:34;;;;;;;0.55;0.55;;;;;;;18.00;100.00;96758.94;29394;203;64004;-64
2023/07/16 00:04:05;;;;;;;0.40;0.40;;;;;;;18.00;100.00;96758.94;29395;199;63005;-61
2023/07/16 00:04:37;;;;;;;0.40;0.40;;;;;;;18.01;100.00;96765.22;29395;249;63009;-60
2023/07/16 00:05:09;;;;;;;0.40;0.40;;;;;;;18.01;100.00;96760.53;29395;207;63005;-69
2023/07/16 00:05:40;;;;;;;0.40;0.40;;;;;;;17.99;100.00;96762.00;29394;230;64013;-67
2023/07/16 00:06:11;;;;;;;0.40;0.40;;;;;;;17.94;100.00;96752.06;29395;219;63011;-66
2023/07/16 00:06:46;;;;;;;0.40;0.40;;;;;;;17.94;100.00;96760.28;29394;263;64009;-66
2023/07/16 00:07:20;;;;;;;0.40;0.40;;;;;;;17.92;100.00;96753.53;29395;224;63005;-70
2023/07/16 00:07:51;;;;;;;0.40;0.40;;;;;;;17.89;100.00;96757.78;29394;233;64013;-68
2023/07/16 00:08:26;;;;;;;0.40;0.40;;;;;;;17.86;100.00;96755.72;29394;231;64009;-72
2023/07/16 00:08:57;;;;;;;0.40;0.40;;;;;;;17.80;100.00;96754.34;29395;260;63016;-67
2023/07/16 00:09:28;;;;;;;0.40;0.40;;;;;;;17.78;100.00;96750.31;29395;227;63004;-70
2023/07/16 00:10:00;;;;;;;0.40;0.40;;;;;;;17.75;100.00;96746.31;29395;206;63009;-67
2023/07/16 00:10:36;;;;;;;0.40;0.40;;;;;;;17.75;100.00;96746.31;29395;248;63004;-62
2023/07/16 00:11:08;;;;;;;0.40;0.40;;;;;;;17.75;100.00;96744.38;29394;242;64013;-69
2023/07/16 00:11:39;;;;;;;0.40;0.40;;;;;;;17.75;100.00;96747.13;29395;281;63005;-63
2023/07/16 00:12:10;;;;;;;0.40;0.40;;;;;;;17.81;100.00;96744.97;29395;286;63009;-67
2023/07/16 00:12:41;;;;;;;0.40;0.40;;;;;;;17.80;100.00;96743.34;29395;239;63005;-73
2023/07/16 00:13:13;;;;;;;0.40;0.40;;;;;;;17.75;100.00;96751.81;29395;233;63009;-68
2023/07/16 00:13:46;;;;;;;0.40;0.40;;;;;;;17.74;100.00;96762.00;29395;203;63013;-67
2023/07/16 00:14:18;;;;;;;0.40;0.40;;;;;;;17.73;100.00;96759.59;29395;256;63009;-73
2023/07/16 00:14:50;;;;;;;0.40;0.40;;;;;;;17.72;100.00;96753.28;29394;280;64005;-68
2023/07/16 00:15:25;;;;;;;0.30;0.30;;;;;;;17.72;100.00;96761.53;29395;209;63009;-72
2023/07/16 00:15:56;;;;;;;0.40;0.40;;;;;;;17.70;100.00;96754.78;29395;241;63004;-72
2023/07/16 00:16:31;;;;;;;0.40;0.40;;;;;;;17.70;100.00;96757.53;29394;252;64013;-74
2023/07/16 00:17:03;;;;;;;0.40;0.40;;;;;;;17.69;100.00;96766.91;29395;240;63008;-73
2023/07/16 00:17:34;;;;;;;0.40;0.40;;;;;;;17.67;100.00;96761.75;29395;210;63008;-72
2023/07/16 00:18:06;;;;;;;0.40;0.40;;;;;;;17.68;100.00;96763.34;29395;231;63004;-71
2023/07/16 00:18:37;;;;;;;0.40;0.40;;;;;;;17.68;100.00;96757.84;29395;199;63009;-71
2023/07/16 00:19:11;;;;;;;0.50;0.50;;;;;;;17.68;100.00;96754.31;29395;299;63005;-73
2023/07/16 00:19:42;;;;;;;0.40;0.40;;;;;;;17.67;100.00;96750.78;29395;280;63009;-75
2023/07/16 00:20:13;;;;;;;0.40;0.40;;;;;;;17.64;100.00;96751.44;29395;314;63016;-76
2023/07/16 00:20:44;;;;;;;0.40;0.40;;;;;;;17.61;100.00;96743.09;29395;196;63009;-75
2023/07/16 00:21:16;;;;;;;0.30;0.30;;;;;;;17.61;100.00;96734.88;29394;257;64009;-75
2023/07/16 00:21:48;;;;;;;0.40;0.40;;;;;;;17.60;100.00;96733.25;29395;202;63009;-76
2023/07/16 00:22:19;;;;;;;0.40;0.40;;;;;;;17.57;100.00;96728.47;29394;223;64009;-75
2023/07/16 00:22:51;;;;;;;0.40;0.40;;;;;;;17.56;100.00;96727.66;29395;233;63009;-74
2023/07/16 00:23:22;;;;;;;0.30;0.30;;;;;;;17.56;100.00;96738.63;29395;290;63004;-74
2023/07/16 00:23:53;;;;;;;0.30;0.30;;;;;;;17.57;100.00;96722.97;29395;244;63009;-75
2023/07/16 00:24:25;;;;;;;0.40;0.40;;;;;;;17.59;100.00;96731.66;29395;313;63004;-75
2023/07/16 00:24:56;;;;;;;0.40;0.40;;;;;;;17.59;100.00;96726.19;29395;206;63008;-76
2023/07/16 00:25:27;;;;;;;0.32;0.32;;;;;;;17.60;100.00;96738.75;29395;212;63004;-75
2023/07/16 00:25:58;;;;;;;0.40;0.40;;;;;;;17.60;100.00;96736.81;29395;202;63009;-75
2023/07/16 00:26:29;;;;;;;0.35;0.35;;;;;;;17.58;100.00;96736.34;29395;247;63005;-76
2023/07/16 00:27:04;;;;;;;0.35;0.35;;;;;;;17.56;100.00;96737.84;29395;216;63009;-75
2023/07/16 00:27:35;;;;;;;0.40;0.40;;;;;;;17.57;100.00;96744.91;29394;216;64009;-75
2023/07/16 00:28:07;;;;;;;0.40;0.40;;;;;;;17.56;100.00;96737.84;29395;240;63009;-68
2023/07/16 00:28:38;;;;;;;0.35;0.35;;;;;;;17.55;100.00;96742.53;29395;238;63005;-76
2023/07/16 00:29:09;;;;;;;0.40;0.40;;;;;;;17.55;100.00;96736.22;29395;238;63009;-77
2023/07/16 00:29:40;;;;;;;0.40;0.40;;;;;;;17.57;100.00;96739.44;29395;289;63005;-75
2023/07/16 00:30:12;;;;;;;0.40;0.40;;;;;;;17.57;100.00;96744.91;29395;231;63009;-76
2023/07/16 00:30:43;;;;;;;0.40;0.40;;;;;;;17.54;100.00;96745.59;29395;229;63004;-75
2023/07/16 00:31:14;;;;;;;0.40;0.40;;;;;;;17.51;100.00;96746.28;29394;220;64013;-76
2023/07/16 00:31:46;;;;;;;0.40;0.40;;;;;;;17.50;100.00;96744.69;29395;230;63004;-76
2023/07/16 00:32:17;;;;;;;0.40;0.40;;;;;;;17.50;100.00;96745.47;29395;224;63009;-76
2023/07/16 00:32:48;;;;;;;0.40;0.40;;;;;;;17.49;100.00;96745.81;29395;203;63004;-76
2023/07/16 00:33:19;;;;;;;0.40;0.40;;;;;;;17.47;100.00;96750.84;29394;242;64004;-77
2023/07/16 00:33:50;;;;;;;0.40;0.40;;;;;;;17.47;100.00;96761.81;29395;204;63005;-76
2023/07/16 00:34:22;;;;;;;0.40;0.40;;;;;;;17.47;100.00;96756.31;29395;242;63009;-75
2023/07/16 00:34:53;;;;;;;0.40;0.40;;;;;;;17.49;100.00;96760.34;29395;211;63005;-76
2023/07/16 00:35:24;;;;;;;0.40;0.40;;;;;;;17.48;100.00;96766.97;29395;271;63009;-75
2023/07/16 00:35:55;;;;;;;0.40;0.40;;;;;;;17.49;100.00;96765.03;29394;211;64009;-76
2023/07/16 00:36:26;;;;;;;0.40;0.40;;;;;;;17.49;100.00;96767.75;29395;211;63009;-77
2023/07/16 00:37:01;;;;;;;0.40;0.40;;;;;;;17.48;100.00;96771.66;29394;225;64009;-77
2023/07/16 00:37:34;;;;;;;0.40;0.40;;;;;;;17.48;100.00;96763.41;29395;299;63009;-77
2023/07/16 00:38:05;;;;;;;0.40;0.40;;;;;;;17.49;100.00;96767.75;29395;227;63004;-77
2023/07/16 00:38:39;;;;;;;0.40;0.40;;;;;;;17.49;100.00;96765.81;29395;232;63009;-76
2023/07/16 00:39:11;;;;;;;0.40;0.40;;;;;;;17.50;100.00;96772.09;29395;215;63004;-76
2023/07/16 00:39:42;;;;;;;0.40;0.40;;;;;;;17.49;100.00;96765.81;29395;202;63009;-76
2023/07/16 00:40:14;;;;;;;0.40;0.40;;;;;;;17.51;100.00;96773.72;29395;215;63004;-76
2023/07/16 00:40:46;;;;;;;0.40;0.40;;;;;;;17.51;100.00;96768.22;29395;199;63008;-76
2023/07/16 00:41:17;;;;;;;0.40;0.40;;;;;;;17.51;100.00;96768.22;29395;242;63005;-77
2023/07/16 00:41:48;;;;;;;0.40;0.40;;;;;;;17.53;100.00;96765.94;29394;222;64014;-76
2023/07/16 00:42:20;;;;;;;0.40;0.40;;;;;;;17.54;100.00;96767.53;29395;197;63008;-76
2023/07/16 00:42:51;;;;;;;0.40;0.40;;;;;;;17.54;100.00;96767.53;29395;220;63009;-75
2023/07/16 00:43:23;;;;;;;0.30;0.30;;;;;;;17.55;100.00;96771.91;29395;266;63005;-76
2023/07/16 00:43:54;;;;;;;0.40;0.40;;;;;;;17.57;100.00;96766.88;29395;216;63009;-76
2023/07/16 00:44:25;;;;;;;0.40;0.40;;;;;;;17.56;100.00;96771.56;29395;276;63004;-77
2023/07/16 00:44:56;;;;;;;0.40;0.40;;;;;;;17.56;100.00;96770.75;29395;211;63009;-76
2023/07/16 00:45:28;;;;;;;0.40;0.40;;;;;;;17.57;100.00;96780.59;29395;222;63004;-77
2023/07/16 00:46:00;;;;;;;0.40;0.40;;;;;;;17.56;100.00;96778.97;29395;218;63009;-74
2023/07/16 00:46:31;;;;;;;0.35;0.35;;;;;;;17.56;100.00;96782.53;29394;202;64004;-76
2023/07/16 00:47:03;;;;;;;0.40;0.40;;;;;;;17.54;100.00;96778.53;29394;217;64013;-76
2023/07/16 00:47:35;;;;;;;0.40;0.40;;;;;;;17.53;100.00;96772.22;29394;213;64008;-76
2023/07/16 00:48:07;;;;;;;0.40;0.40;;;;;;;17.54;100.00;96773.03;29395;254;63018;-76
2023/07/16 00:48:41;;;;;;;0.40;0.40;;;;;;;17.54;100.00;96775.78;29395;301;63005;-77
2023/07/16 00:49:16;;;;;;;0.40;0.40;;;;;;;17.51;100.00;96773.72;29395;199;63009;-76
2023/07/16 00:49:50;;;;;;;0.40;0.40;;;;;;;17.47;100.00;96764.56;29395;265;63013;-76
2023/07/16 00:50:22;;;;;;;0.40;0.40;;;;;;;17.43;100.00;96762.50;29395;248;63009;-75
2023/07/16 00:50:54;;;;;;;0.40;0.40;;;;;;;17.43;100.00;96762.50;29395;197;63005;-76
2023/07/16 00:51:28;;;;;;;0.40;0.40;;;;;;;17.44;100.00;96763.28;29395;228;63009;-75
2023/07/16 00:52:00;;;;;;;0.40;0.40;;;;;;;17.43;100.00;96762.50;29395;238;63017;-75
2023/07/16 00:52:32;;;;;;;0.40;0.40;;;;;;;17.42;100.00;96760.09;29395;217;63009;-77
2023/07/16 00:53:03;;;;;;;0.40;0.40;;;;;;;17.41;100.00;96764.78;29394;205;64009;-75
2023/07/16 00:53:35;;;;;;;0.40;0.40;;;;;;;17.40;100.00;96765.09;29394;202;64013;-77
2023/07/16 00:54:08;;;;;;;0.40;0.40;;;;;;;17.39;100.00;96769.78;29395;224;63004;-77
2023/07/16 00:54:39;;;;;;;0.40;0.40;;;;;;;17.39;100.00;96767.06;29395;206;63008;-77
2023/07/16 00:55:11;;;;;;;0.40;0.40;;;;;;;17.39;100.00;96772.53;29395;288;63005;-77
2023/07/16 00:55:43;;;;;;;0.40;0.40;;;;;;;17.40;100.00;96774.12;29395;222;63013;-77
2023/07/16 00:56:20;;;;;;;0.30;0.30;;;;;;;17.40;100.00;96767.84;29395;199;63001;-77
2023/07/16 00:56:51;;;;;;;0.40;0.40;;;;;;;17.42;100.00;96760.88;29394;207;64013;-78
2023/07/16 00:57:23;;;;;;;0.40;0.40;;;;;;;17.45;100.00;96759.41;29395;241;63005;-78
2023/07/16 00:57:57;;;;;;;0.40;0.40;;;;;;;17.49;100.00;96754.03;29395;236;63009;-76
2023/07/16 00:58:28;;;;;;;0.40;0.40;;;;;;;17.46;100.00;96749.25;29395;236;63005;-77
2023/07/16 00:58:59;;;;;;;0.40;0.40;;;;;;;17.41;100.00;96759.28;29395;249;63009;-68
2023/07/16 00:59:31;;;;;;;0.40;0.40;;;;;;;17.39;100.00;96755.28;29395;245;63004;-77
2023/07/16 01:00:03;;;;;;;0.40;0.40;;;;;;;17.37;100.00;96763.84;29395;245;63009;-77
2023/07/16 01:00:39;;;;;;;0.37;0.37;;;;;;;17.38;100.00;96762.72;29395;196;63003;-76
2023/07/16 01:01:13;;;;;;;0.40;0.40;;;;;;;17.38;100.00;96765.44;29394;202;64009;-67
2023/07/16 01:01:44;;;;;;;0.40;0.40;;;;;;;17.40;100.00;96757.69;29394;244;64009;-75
2023/07/16 01:02:16;;;;;;;0.40;0.40;;;;;;;17.41;100.00;96770.25;29394;232;64013;-77
2023/07/16 01:02:47;;;;;;;0.40;0.40;;;;;;;17.41;100.00;96773.00;29395;215;63005;-77
2023/07/16 01:03:18;;;;;;;0.40;0.40;;;;;;;17.44;100.00;96766.03;29395;231;63009;-77
2023/07/16 01:03:50;;;;;;;0.40;0.40;;;;;;;17.45;100.00;96775.06;29395;230;63005;-79
2023/07/16 01:04:21;;;;;;;0.40;0.40;;;;;;;17.46;100.00;96771.19;29395;239;63009;-78
2023/07/16 01:04:53;;;;;;;0.40;0.40;;;;;;;17.48;100.00;96768.91;29395;209;63005;-78
2023/07/16 01:05:33;;;;;;;0.50;0.50;;;;;;;17.50;100.00;96774.84;29395;196;63013;-78
2023/07/16 01:06:38;;;;;;;0.40;0.40;;;;;;;17.49;100.00;96782.28;29395;211;63005;-77
2023/07/16 01:07:12;;;;;;;0.40;0.40;;;;;;;17.49;100.00;96786.97;29394;294;64013;-78
2023/07/16 01:07:53;;;;;;;0.40;0.40;;;;;;;17.47;100.00;96789.25;29395;214;63004;-78
2023/07/16 01:08:42;;;;;;;0.45;0.45;;;;;;;17.41;100.00;96780.44;29395;255;63009;-77
2023/07/16 01:09:17;;;;;;;0.40;0.40;;;;;;;17.43;100.00;96789.91;29395;215;63004;-67
2023/07/16 01:09:49;;;;;;;0.50;0.50;;;;;;;17.45;100.00;96791.53;29395;240;63008;-77
2023/07/16 01:10:22;;;;;;;0.40;0.40;;;;;;;17.46;100.00;96787.63;29395;220;63005;-76
2023/07/16 01:10:55;;;;;;;0.40;0.40;;;;;;;17.45;100.00;96786.84;29395;234;63009;-77
2023/07/16 01:11:27;;;;;;;0.40;0.40;;;;;;;17.45;100.00;96791.53;29395;260;63005;-76
2023/07/16 01:12:01;;;;;;;0.30;0.30;;;;;;;17.43;100.00;96794.59;29394;211;64013;-76
2023/07/16 01:12:33;;;;;;;0.40;0.40;;;;;;;17.43;100.00;96789.91;29395;216;63005;-77
2023/07/16 01:13:05;;;;;;;0.40;0.40;;;;;;;17.46;100.00;96788.44;29395;237;63009;-76
2023/07/16 01:13:37;;;;;;;0.40;0.40;;;;;;;17.50;100.00;96800.34;29395;218;63005;-73
2023/07/16 01:14:09;;;;;;;0.30;0.30;;;;;;;17.53;100.00;96802.41;29395;211;63009;-73
2023/07/16 01:14:42;;;;;;;0.40;0.40;;;;;;;17.56;100.00;96807.22;29394;213;64009;-73
2023/07/16 01:15:13;;;;;;;0.40;0.40;;;;;;;17.58;100.00;96804.94;29395;213;63009;-76
2023/07/16 01:15:45;;;;;;;0.40;0.40;;;;;;;17.58;100.00;96804.12;29395;202;63004;-76
2023/07/16 01:16:23;;;;;;;0.40;0.40;;;;;;;17.59;100.00;96803.00;29395;204;63009;-78
2023/07/16 01:16:58;;;;;;;0.40;0.40;;;;;;;17.60;100.00;96804.59;29395;226;63004;-76
2023/07/16 01:17:33;;;;;;;0.40;0.40;;;;;;;17.60;100.00;96804.59;29395;206;63008;-77
2023/07/16 01:18:05;;;;;;;0.40;0.40;;;;;;;17.57;100.00;96800.59;29395;253;63005;-73
2023/07/16 01:18:36;;;;;;;0.40;0.40;;;;;;;17.58;100.00;96802.19;29395;273;63009;-73
2023/07/16 01:19:09;;;;;;;0.40;0.40;;;;;;;17.58;100.00;96806.87;29394;287;64009;-76
2023/07/16 01:19:40;;;;;;;0.40;0.40;;;;;;;17.56;100.00;96809.16;29395;218;63009;-74
2023/07/16 01:20:11;;;;;;;0.40;0.40;;;;;;;17.58;100.00;96815.09;29395;204;63007;-72
2023/07/16 01:20:42;;;;;;;0.40;0.40;;;;;;;17.57;100.00;96805.28;29394;206;64013;-63
2023/07/16 01:21:15;;;;;;;0.40;0.40;;;;;;;17.52;100.00;96809.03;29395;199;63005;-76
2023/07/16 01:22:18;;;;;;;0.40;0.40;;;;;;;17.48;100.00;96807.31;29395;300;63009;-65
2023/07/16 01:23:20;;;;;;;0.40;0.40;;;;;;;17.46;100.00;96812.31;29395;213;63004;-74
2023/07/16 01:24:09;;;;;;;;;;;;;;;17.37;100.00;96806.94;29996;962;6004;-75
2023/07/16 01:25:05;;;;;;;0.40;0.40;;;;;;;17.35;100.00;96814.69;29400;229;63017;-76
2023/07/16 01:26:26;;;;;;;0.40;0.40;;;;;;;17.27;100.00;96813.66;29394;215;64009;-75
2023/07/16 01:27:37;;;;;;;0.40;0.40;;;;;;;17.31;100.00;96809.09;29394;202;64014;-73
2023/07/16 01:28:58;;;;;;;0.30;0.30;;;;;;;17.30;100.00;96809.44;29395;230;63013;-63
2023/07/16 01:29:42;;;;;;;0.40;0.40;;;;;;;17.36;100.00;96806.13;29395;222;63009;-72
2023/07/16 01:30:16;;;;;;;0.40;0.40;;;;;;;17.36;100.00;96811.59;29394;199;64009;-73
2023/07/16 01:30:49;;;;;;;0.40;0.40;;;;;;;17.35;100.00;96814.69;29395;242;63009;-74
2023/07/16 01:31:22;;;;;;;0.40;0.40;;;;;;;17.30;100.00;96818.47;29395;202;63004;-73
2023/07/16 01:31:55;;;;;;;0.40;0.40;;;;;;;17.28;100.00;96826.22;29395;226;63024;-73
2023/07/16 01:32:30;;;;;;;0.30;0.30;;;;;;;17.38;100.00;96824.97;29395;211;63004;-68
2023/07/16 01:33:03;;;;;;;0.40;0.40;;;;;;;17.53;100.00;96820.81;29395;283;63009;-70
2023/07/16 01:33:36;;;;;;;0.40;0.40;;;;;;;17.44;100.00;96820.91;29395;304;63005;-74
2023/07/16 01:34:10;;;;;;;0.40;0.40;;;;;;;17.37;100.00;96818.69;29395;205;63009;-75
2023/07/16 01:34:42;;;;;;;0.40;0.40;;;;;;;17.29;100.00;96816.06;29395;229;63005;-73
2023/07/16 01:35:14;;;;;;;0.40;0.40;;;;;;;17.19;100.00;96816.47;29394;282;64013;-72
2023/07/16 01:35:48;;;;;;;0.30;0.30;;;;;;;17.16;100.00;96828.91;29395;197;63005;-75
2023/07/16 01:36:21;;;;;;;0.40;0.40;;;;;;;17.14;100.00;96814.75;29395;218;63009;-74
2023/07/16 01:36:52;;;;;;;0.35;0.35;;;;;;;17.15;100.00;96818.28;29395;200;63005;-71
2023/07/16 01:37:24;;;;;;;0.40;0.40;;;;;;;17.12;100.00;96821.69;29395;230;63009;-72
2023/07/16 01:37:55;;;;;;;0.40;0.40;;;;;;;17.00;100.00;96819.69;29395;199;63004;-72
2023/07/16 01:38:27;;;;;;;0.40;0.40;;;;;;;16.94;100.00;96819.12;29395;204;63009;-73
2023/07/16 01:38:58;;;;;;;0.40;0.40;;;;;;;16.91;100.00;96817.06;29395;235;63004;-73
2023/07/16 01:39:32;;;;;;;0.40;0.40;;;;;;;16.90;100.00;96826.41;29395;218;63009;-74
2023/07/16 01:40:08;;;;;;;0.40;0.40;;;;;;;16.85;100.00;96821.13;29394;238;64008;-73
2023/07/16 01:40:40;;;;;;;0.40;0.40;;;;;;;16.77;100.00;96821.19;29395;244;63009;-73
2023/07/16 01:41:12;;;;;;;0.32;0.32;;;;;;;16.75;100.00;96818.78;29395;219;63005;-72
2023/07/16 01:41:43;;;;;;;0.40;0.40;;;;;;;16.73;100.00;96815.56;29395;202;63009;-71
2023/07/16 01:42:14;;;;;;;0.40;0.40;;;;;;;16.74;100.00;96826.19;29395;225;63005;-73
2023/07/16 01:42:45;;;;;;;0.40;0.40;;;;;;;16.74;100.00;96825.41;29395;235;63009;-73
2023/07/16 01:43:17;;;;;;;0.35;0.35;;;;;;;16.69;100.00;96826.41;29395;235;63005;-73
2023/07/16 01:43:48;;;;;;;0.40;0.40;;;;;;;16.71;100.00;96829.59;29395;226;63009;-73
2023/07/16 01:44:20;;;;;;;0.40;0.40;;;;;;;16.71;100.00;96810.44;29394;225;64009;-72
2023/07/16 01:44:51;;;;;;;0.40;0.40;;;;;;;16.74;100.00;96807.03;29395;275;63009;-74
2023/07/16 01:45:22;;;;;;;0.40;0.40;;;;;;;16.73;100.00;96810.91;29395;203;63004;-73
2023/07/16 01:45:54;;;;;;;0.35;0.35;;;;;;;16.67;100.00;96806.75;29395;220;63009;-60
2023/07/16 01:46:26;;;;;;;0.40;0.40;;;;;;;16.68;100.00;96805.59;29395;227;63004;-73
2023/07/16 01:47:21;;;;;;;0.40;0.40;;;;;;;16.69;100.00;96809.16;29395;212;63009;-72
2023/07/16 01:48:45;;;;;;;0.40;0.40;;;;;;;16.75;100.00;96807.81;29395;235;63010;-73
2023/07/16 01:49:16;;;;;;;0.40;0.40;;;;;;;16.72;100.00;96806.56;29394;303;64014;-73
2023/07/16 01:49:48;;;;;;;0.40;0.40;;;;;;;16.65;100.00;96808.22;29395;262;63005;-72
2023/07/16 01:50:20;;;;;;;0.40;0.40;;;;;;;16.57;100.00;96804.41;29395;202;63019;-72
2023/07/16 01:50:51;;;;;;;0.40;0.40;;;;;;;16.52;100.00;96810.06;29395;347;63005;-72
2023/07/16 01:51:22;;;;;;;0.37;0.37;;;;;;;16.49;100.00;96801.72;29395;300;63009;-72
2023/07/16 01:51:54;;;;;;;0.40;0.40;;;;;;;16.51;100.00;96802.19;29394;228;64009;-72
2023/07/16 01:52:26;;;;;;;0.40;0.40;;;;;;;16.52;100.00;96809.25;29395;359;63009;-71
2023/07/16 01:52:57;;;;;;;0.40;0.40;;;;;;;16.53;100.00;96806.19;29395;199;63004;-72
2023/07/16 01:53:28;;;;;;;0.40;0.40;;;;;;;16.47;100.00;96807.53;29395;367;63009;-72
2023/07/16 01:53:59;;;;;;;0.40;0.40;;;;;;;16.47;100.00;96788.34;29395;204;63004;-72
2023/07/16 01:54:31;;;;;;;0.40;0.40;;;;;;;16.47;100.00;96790.28;29395;216;63008;-72
2023/07/16 01:55:02;;;;;;;0.40;0.40;;;;;;;16.44;100.00;96794.50;29395;274;63004;-72
2023/07/16 01:55:33;;;;;;;0.40;0.40;;;;;;;16.47;100.00;96790.28;29394;312;64014;-71
2023/07/16 01:56:05;;;;;;;0.30;0.30;;;;;;;16.44;100.00;96791.75;29394;227;64009;-72
2023/07/16 01:56:36;;;;;;;0.40;0.40;;;;;;;16.39;100.00;96790.00;29395;213;63009;-71
2023/07/16 01:57:07;;;;;;;0.40;0.40;;;;;;;16.37;100.00;96794.22;29394;243;64009;-72
2023/07/16 01:57:40;;;;;;;0.40;0.40;;;;;;;16.40;100.00;96796.28;29395;363;63009;-73
2023/07/16 01:58:11;;;;;;;0.32;0.32;;;;;;;16.40;100.00;96801.75;29395;223;63005;-72
2023/07/16 01:58:42;;;;;;;0.45;0.45;;;;;;;16.38;100.00;96804.84;29395;248;63009;-72
2023/07/16 01:59:14;;;;;;;0.40;0.40;;;;;;;16.38;100.00;96795.81;29395;213;63008;-72
2023/07/16 01:59:46;;;;;;;0.40;0.40;;;;;;;16.39;100.00;96803.69;29395;219;63017;-73
2023/07/16 02:00:18;;;;;;;0.40;0.40;;;;;;;16.40;100.00;96801.75;29395;202;63004;-73
2023/07/16 02:00:50;;;;;;;0.40;0.40;;;;;;;16.42;100.00;96804.97;29395;319;63009;-59
2023/07/16 02:01:22;;;;;;;0.40;0.40;;;;;;;16.47;100.00;96802.03;29394;254;64009;-73
2023/07/16 02:01:53;;;;;;;0.40;0.40;;;;;;;16.50;100.00;96808.78;29395;232;63008;-72
2023/07/16 02:02:24;;;;;;;0.40;0.40;;;;;;;16.50;100.00;96812.34;29395;222;63005;-74
2023/07/16 02:02:55;;;;;;;0.40;0.40;;;;;;;16.56;100.00;96804.72;29394;221;64009;-73
2023/07/16 02:03:26;;;;;;;0.40;0.40;;;;;;;16.57;100.00;96807.13;29395;221;63005;-73
2023/07/16 02:03:57;;;;;;;0.40;0.40;;;;;;;16.55;100.00;96809.41;29395;222;63009;-58
2023/07/16 02:04:29;;;;;;;0.40;0.40;;;;;;;16.56;100.00;96810.22;29395;347;63005;-58
2023/07/16 02:05:00;;;;;;;0.40;0.40;;;;;;;16.57;100.00;96812.63;29395;202;63009;-73
2023/07/16 02:05:31;;;;;;;0.40;0.40;;;;;;;16.57;100.00;96812.63;29394;251;64009;-73
2023/07/16 02:06:02;;;;;;;0.40;0.40;;;;;;;16.59;100.00;96813.09;29395;239;63009;-73
2023/07/16 02:06:34;;;;;;;0.40;0.40;;;;;;;16.62;100.00;96815.16;29395;246;63004;-72
2023/07/16 02:07:05;;;;;;;0.40;0.40;;;;;;;16.69;100.00;96820.91;29394;212;64013;-69
2023/07/16 02:07:37;;;;;;;0.40;0.40;;;;;;;16.73;100.00;96819.12;29395;220;63011;-73
2023/07/16 02:08:08;;;;;;;0.40;0.40;;;;;;;16.76;100.00;96814.91;29395;286;63009;-73
2023/07/16 02:08:39;;;;;;;0.40;0.40;;;;;;;16.80;100.00;96826.00;29394;220;64009;-73
2023/07/16 02:09:10;;;;;;;0.40;0.40;;;;;;;16.74;100.00;96812.50;29394;199;64008;-57
2023/07/16 02:09:41;;;;;;;0.40;0.40;;;;;;;16.66;100.00;96810.62;29394;213;64008;-71
2023/07/16 02:10:13;;;;;;;0.40;0.40;;;;;;;16.66;100.00;96816.09;29395;236;63009;-71
2023/07/16 02:10:46;;;;;;;0.40;0.40;;;;;;;16.62;100.00;96809.69;29395;224;63005;-72
2023/07/16 02:11:18;;;;;;;0.40;0.40;;;;;;;16.60;100.00;96802.94;29394;214;64014;-71
2023/07/16 02:11:49;;;;;;;0.50;0.50;;;;;;;16.60;100.00;96801.00;29395;286;63005;-73
2023/07/16 02:12:20;;;;;;;0.40;0.40;;;;;;;16.60;100.00;96803.72;29395;215;63009;-73
2023/07/16 02:12:51;;;;;;;0.40;0.40;;;;;;;16.61;100.00;96799.84;29395;215;63005;-72
2023/07/16 02:13:22;;;;;;;0.40;0.40;;;;;;;16.57;100.00;96801.66;29395;319;63009;-72
2023/07/16 02:13:54;;;;;;;0.40;0.40;;;;;;;16.54;100.00;96802.31;29395;220;63005;-71
2023/07/16 02:14:25;;;;;;;0.40;0.40;;;;;;;16.52;100.00;96804.59;29395;226;63009;-72
2023/07/16 02:14:56;;;;;;;0.40;0.40;;;;;;;16.47;100.00;96806.72;29395;206;63004;-73
2023/07/16 02:15:27;;;;;;;0.40;0.40;;;;;;;16.42;100.00;96804.97;29395;239;63009;-72
2023/07/16 02:15:58;;;;;;;0.40;0.40;;;;;;;16.39;100.00;96811.09;29395;213;63004;-71
2023/07/16 02:16:29;;;;;;;0.40;0.40;;;;;;;16.40;100.00;96812.72;29394;212;64013;-72
2023/07/16 02:17:01;;;;;;;0.40;0.40;;;;;;;16.40;100.00;96813.50;29395;271;63004;-59
2023/07/16 02:17:32;;;;;;;0.40;0.40;;;;;;;16.41;100.00;96819.78;29395;199;63009;-71
2023/07/16 02:18:06;;;;;;;0.40;0.40;;;;;;;16.40;100.00;96823.66;29395;199;63005;-71
2023/07/16 02:18:37;;;;;;;0.40;0.40;;;;;;;16.39;100.00;96824.81;29394;252;64014;-72
2023/07/16 02:19:08;;;;;;;0.40;0.40;;;;;;;16.37;100.00;96829.81;29395;305;63005;-71
2023/07/16 02:19:39;;;;;;;0.40;0.40;;;;;;;16.36;100.00;96822.72;29395;264;63009;-71
2023/07/16 02:20:12;;;;;;;0.35;0.35;;;;;;;16.34;100.00;96812.09;29395;213;63005;-71
2023/07/16 02:20:44;;;;;;;0.30;0.30;;;;;;;16.33;100.00;96820.66;29395;198;63009;-71
2023/07/16 02:21:15;;;;;;;0.40;0.40;;;;;;;16.35;100.00;96815.63;29395;196;63005;-72
2023/07/16 02:21:46;;;;;;;0.40;0.40;;;;;;;16.36;100.00;96811.78;29394;218;64013;-71
2023/07/16 02:22:17;;;;;;;0.40;0.40;;;;;;;16.39;100.00;96811.09;29395;230;63010;-57
2023/07/16 02:22:49;;;;;;;0.40;0.40;;;;;;;16.41;100.00;96815.13;29395;323;63009;-70
2023/07/16 02:23:20;;;;;;;0.40;0.40;;;;;;;16.41;100.00;96819.78;29394;198;64009;-70
2023/07/16 02:23:51;;;;;;;0.40;0.40;;;;;;;16.39;100.00;96824.81;29395;255;63009;-70
2023/07/16 02:24:23;;;;;;;0.40;0.40;;;;;;;16.39;100.00;96833.03;29395;221;63004;-69
2023/07/16 02:24:54;;;;;;;0.50;0.50;;;;;;;16.40;100.00;96834.62;29395;262;63009;-69
2023/07/16 02:25:25;;;;;;;0.40;0.40;;;;;;;16.41;100.00;96836.22;29394;270;64009;-69
2023/07/16 02:25:56;;;;;;;0.40;0.40;;;;;;;16.42;100.00;96838.63;29395;198;63009;-69
2023/07/16 02:26:30;;;;;;;0.40;0.40;;;;;;;16.40;100.00;96840.91;29395;226;63005;-69
2023/07/16 02:27:03;;;;;;;0.40;0.40;;;;;;;16.42;100.00;96843.31;29395;229;63009;-57
2023/07/16 02:27:34;;;;;;;0.40;0.40;;;;;;;16.42;100.00;96843.31;29395;208;63005;-71
2023/07/16 02:28:05;;;;;;;0.40;0.40;;;;;;;16.42;100.00;96840.56;29395;235;63009;-71
2023/07/16 02:28:37;;;;;;;0.40;0.40;;;;;;;16.43;100.00;96836.69;29395;233;63005;-70
2023/07/16 02:29:08;;;;;;;0.30;0.30;;;;;;;16.46;100.00;96847.00;29395;222;63009;-70
2023/07/16 02:29:40;;;;;;;0.30;0.30;;;;;;;16.45;100.00;96841.84;29395;243;63004;-70
2023/07/16 02:30:11;;;;;;;0.40;0.40;;;;;;;16.42;100.00;96843.31;29394;202;64013;-70
2023/07/16 02:30:43;;;;;;;0.40;0.40;;;;;;;16.45;100.00;96841.84;29395;197;63004;-69
2023/07/16 02:31:14;;;;;;;0.40;0.40;;;;;;;16.47;100.00;96834.91;29395;225;63009;-69
2023/07/16 02:31:48;;;;;;;0.40;0.40;;;;;;;16.46;100.00;96841.50;29395;344;63004;-69
2023/07/16 02:32:19;;;;;;;0.40;0.40;;;;;;;16.43;100.00;96839.44;29395;214;63008;-69
2023/07/16 02:32:50;;;;;;;0.30;0.30;;;;;;;16.41;100.00;96830.75;29395;216;63005;-69
2023/07/16 02:33:21;;;;;;;0.40;0.40;;;;;;;16.40;100.00;96831.88;29395;204;63020;-69
2023/07/16 02:33:53;;;;;;;0.40;0.40;;;;;;;16.32;100.00;96824.50;29395;210;63005;-68
2023/07/16 02:34:24;;;;;;;0.40;0.40;;;;;;;16.33;100.00;96823.37;29395;227;63009;-66
2023/07/16 02:34:55;;;;;;;0.40;0.40;;;;;;;16.38;100.00;96823.19;29395;259;63005;-69
2023/07/16 02:35:26;;;;;;;0.40;0.40;;;;;;;16.36;100.00;96818.06;29394;229;64013;-69
2023/07/16 02:35:58;;;;;;;0.40;0.40;;;;;;;16.36;100.00;96825.47;29395;226;63005;-71
2023/07/16 02:36:33;;;;;;;0.40;0.40;;;;;;;16.38;100.00;96823.19;29395;205;63009;-69
2023/07/16 02:37:05;;;;;;;0.40;0.40;;;;;;;16.39;100.00;96822.87;29395;229;63004;-70